Time;durP1;ratioP1;P1;durP2;ratioP2;P2;SDS_P1;SDS_P2;PMS_P1;PMS_P2;Temp;Humidity;BMP_temperature;BMP_pressure;BME280_temperature;BME280_humidity;BME280_pressure;Samples;Min_cycle;Max_cycle;Signal;HPM_P1;HPM_P2
2022/11/13 00:02:09;;;;;;;10.98;3.97;;;9.10;99.90;;;;;;5026284;28;20033;-69
2022/11/13 00:04:34;;;;;;;7.43;4.20;;;9.10;99.90;;;;;;5024405;28;20034;-69
2022/11/13 00:07:00;;;;;;;9.38;4.03;;;9.10;99.90;;;;;;5025285;28;20029;-69
2022/11/13 00:09:25;;;;;;;10.15;4.30;;;9.10;99.90;;;;;;5026403;28;20049;-69
2022/11/13 00:11:51;;;;;;;7.90;3.13;;;9.10;99.90;;;;;;5023942;28;20812;-69
2022/11/13 00:14:17;;;;;;;9.30;3.55;;;9.20;99.90;;;;;;5024827;28;20105;-68
2022/11/13 00:16:42;;;;;;;9.88;4.38;;;9.30;99.90;;;;;;5026090;28;20500;-69
2022/11/13 00:19:08;;;;;;;8.30;3.53;;;9.30;99.90;;;;;;5025578;28;20041;-70
2022/11/13 00:21:34;;;;;;;10.80;4.20;;;9.30;99.90;;;;;;5026189;28;20045;-68
2022/11/13 00:23:59;;;;;;;9.05;3.63;;;9.20;99.90;;;;;;5024930;28;20056;-69
2022/11/13 00:26:29;;;;;;;6.63;3.53;;;9.20;99.90;;;;;;5026142;28;20048;-68
2022/11/13 00:28:59;;;;;;;6.93;3.35;;;9.10;99.90;;;;;;5025221;28;20041;-69
2022/11/13 00:31:25;;;;;;;;;;;9.00;99.90;;;;;;5026178;28;20030;-68
2022/11/13 00:33:51;;;;;;;;;;;9.00;99.90;;;;;;5023168;28;19924;-68
2022/11/13 00:36:18;;;;;;;;;;;9.00;99.90;;;;;;5021491;28;19920;-68
2022/11/13 00:38:43;;;;;;;;;;;9.10;99.90;;;;;;5024410;28;19924;-73
2022/11/13 00:41:09;;;;;;;;;;;9.10;99.90;;;;;;5025300;28;19917;-68
2022/11/13 00:43:35;;;;;;;;;;;9.10;99.90;;;;;;5024229;28;19924;-68
2022/11/13 00:46:00;;;;;;;;;;;9.10;99.90;;;;;;5024581;28;19913;-69
2022/11/13 00:48:26;;;;;;;;;;;9.10;99.90;;;;;;5028554;28;20056;-69
2022/11/13 00:50:51;;;;;;;;;;;9.10;99.90;;;;;;5028174;28;20289;-68
2022/11/13 00:53:17;;;;;;;;;;;9.10;99.90;;;;;;5029298;28;19924;-68
2022/11/13 00:55:43;;;;;;;;;;;9.10;99.90;;;;;;5029123;28;19921;-67
2022/11/13 00:58:09;;;;;;;;;;;9.10;99.90;;;;;;5027610;28;19921;-69
2022/11/13 01:00:35;;;;;;;;;;;9.10;99.90;;;;;;5029634;28;20096;-67
2022/11/13 01:03:02;;;;;;;;;;;9.00;99.90;;;;;;5027239;28;20385;-68
2022/11/13 01:05:27;;;;;;;;;;;9.00;99.90;;;;;;5027249;28;19917;-68
2022/11/13 01:07:53;;;;;;;;;;;9.00;99.90;;;;;;5026908;28;19920;-68
2022/11/13 01:10:19;;;;;;;;;;;9.00;99.90;;;;;;5030001;28;19917;-69
2022/11/13 01:12:44;;;;;;;;;;;9.00;99.90;;;;;;5023350;28;19924;-68
2022/11/13 01:15:10;;;;;;;;;;;9.00;99.90;;;;;;5029528;28;19917;-69
2022/11/13 01:17:35;;;;;;;;;;;9.00;99.90;;;;;;5030162;28;20435;-68
2022/11/13 01:20:01;;;;;;;;;;;9.00;99.90;;;;;;5029216;28;19917;-67
2022/11/13 01:22:27;;;;;;;;;;;9.10;99.90;;;;;;5025867;28;20019;-68
2022/11/13 01:24:52;;;;;;;;;;;9.10;99.90;;;;;;5023831;28;20443;-68
2022/11/13 01:27:18;;;;;;;;;;;9.10;99.90;;;;;;5021485;28;19928;-68
2022/11/13 01:29:43;;;;;;;;;;;9.10;99.90;;;;;;5020884;28;19917;-68
2022/11/13 01:32:09;;;;;;;;;;;9.10;99.90;;;;;;5020570;28;19913;-67
2022/11/13 01:34:34;;;;;;;;;;;9.00;99.90;;;;;;5026753;28;19917;-69
2022/11/13 01:37:00;;;;;;;;;;;9.00;99.90;;;;;;5028455;28;20773;-68
2022/11/13 01:39:25;;;;;;;;;;;9.00;99.90;;;;;;5029049;28;19983;-68
2022/11/13 01:41:51;;;;;;;;;;;9.00;99.90;;;;;;5026916;28;19952;-68
2022/11/13 01:44:17;;;;;;;;;;;9.00;99.90;;;;;;5022436;28;19917;-67
2022/11/13 01:46:44;;;;;;;;;;;9.00;99.90;;;;;;5030544;28;19913;-69
2022/11/13 01:49:09;;;;;;;;;;;9.10;99.90;;;;;;5028995;28;20158;-69
2022/11/13 01:51:38;;;;;;;;;;;9.10;99.90;;;;;;5028247;28;20478;-67
2022/11/13 01:54:05;;;;;;;;;;;9.20;99.90;;;;;;5026661;28;19917;-70
2022/11/13 01:56:31;;;;;;;;;;;9.20;99.90;;;;;;5021911;28;19925;-68
2022/11/13 01:58:58;;;;;;;;;;;9.20;99.90;;;;;;5021440;28;19917;-68
2022/11/13 02:01:24;;;;;;;;;;;9.20;99.90;;;;;;5028912;28;19967;-69
2022/11/13 02:03:49;;;;;;;;;;;9.20;99.90;;;;;;5025255;28;19917;-69
2022/11/13 02:06:15;;;;;;;;;;;9.20;99.90;;;;;;5027582;28;20397;-69
2022/11/13 02:08:42;;;;;;;;;;;9.20;99.90;;;;;;5029060;28;19963;-69
2022/11/13 02:11:07;;;;;;;;;;;9.20;99.90;;;;;;5028196;28;19924;-69
2022/11/13 02:13:34;;;;;;;;;;;9.30;99.90;;;;;;5026737;28;19917;-69
2022/11/13 02:15:59;;;;;;;;;;;9.30;99.90;;;;;;5028296;28;19917;-68
2022/11/13 02:18:26;;;;;;;;;;;9.40;99.90;;;;;;5028993;28;19928;-68
2022/11/13 02:21:01;;;;;;;;;;;9.40;99.90;;;;;;5026543;28;19917;-68
2022/11/13 02:23:36;;;;;;;;;;;9.40;99.90;;;;;;5022450;28;19921;-67
2022/11/13 02:26:02;;;;;;;;;;;9.40;99.90;;;;;;5025076;28;19967;-68
2022/11/13 02:28:27;;;;;;;;;;;9.40;99.90;;;;;;5028288;28;19929;-68
2022/11/13 02:30:52;;;;;;;;;;;9.40;99.90;;;;;;5026141;28;19917;-68
2022/11/13 02:33:26;;;;;;;;;;;9.30;99.90;;;;;;5026276;28;19952;-70
2022/11/13 02:35:52;;;;;;;;;;;9.30;99.90;;;;;;5025673;28;20358;-69
2022/11/13 02:38:17;;;;;;;;;;;9.30;99.90;;;;;;5028199;28;19964;-68
2022/11/13 02:40:43;;;;;;;;;;;9.30;99.90;;;;;;5028010;28;19923;-68
2022/11/13 02:43:08;;;;;;;;;;;9.30;99.90;;;;;;5027448;28;20357;-68
2022/11/13 02:45:34;;;;;;;;;;;9.20;99.90;;;;;;5026718;28;20015;-68
2022/11/13 02:47:59;;;;;;;;;;;9.20;99.90;;;;;;5026007;28;19929;-67
2022/11/13 02:50:25;;;;;;;;;;;9.20;99.90;;;;;;5026598;28;20023;-69
2022/11/13 02:52:51;;;;;;;;;;;9.20;99.90;;;;;;5025644;28;19916;-70
2022/11/13 02:55:16;;;;;;;;;;;9.20;99.90;;;;;;5028184;28;19983;-68
2022/11/13 02:57:42;;;;;;;;;;;9.20;99.90;;;;;;5027937;28;19924;-68
2022/11/13 03:00:07;;;;;;;;;;;9.20;99.90;;;;;;5027170;28;19913;-69
2022/11/13 03:02:33;;;;;;;;;;;9.20;99.90;;;;;;5027400;28;19948;-69
2022/11/13 03:04:58;;;;;;;;;;;9.20;99.90;;;;;;5026783;28;19915;-68
2022/11/13 03:07:24;;;;;;;;;;;9.20;99.90;;;;;;5028188;28;20324;-67
2022/11/13 03:09:50;;;;;;;;;;;9.20;99.90;;;;;;5026767;28;19944;-69
2022/11/13 03:12:15;;;;;;;;;;;9.10;99.90;;;;;;5026062;28;19917;-68
2022/11/13 03:14:41;;;;;;;;;;;9.10;99.90;;;;;;5024539;28;20352;-68
2022/11/13 03:17:06;;;;;;;;;;;9.10;99.90;;;;;;5024297;28;19919;-69
2022/11/13 03:19:32;;;;;;;;;;;9.10;99.90;;;;;;5024495;28;20301;-68
2022/11/13 03:21:58;;;;;;;;;;;9.00;99.90;;;;;;5024922;28;19921;-69
2022/11/13 03:24:23;;;;;;;;;;;9.00;99.90;;;;;;5024982;28;20482;-70
2022/11/13 03:26:48;;;;;;;;;;;9.10;99.90;;;;;;5026341;28;19917;-71
2022/11/13 03:29:14;;;;;;;;;;;9.10;99.90;;;;;;5025874;28;19925;-68
2022/11/13 03:31:40;;;;;;;;;;;9.10;99.90;;;;;;5027541;28;19917;-69
2022/11/13 03:34:05;;;;;;;;;;;9.10;99.90;;;;;;5026087;28;19928;-68
2022/11/13 03:36:30;;;;;;;;;;;9.10;99.90;;;;;;5026284;28;19940;-68
2022/11/13 03:38:56;;;;;;;;;;;9.20;99.90;;;;;;5026446;28;20396;-68
2022/11/13 03:41:22;;;;;;;;;;;9.20;99.90;;;;;;5025898;28;19921;-69
2022/11/13 03:43:47;;;;;;;;;;;9.20;99.90;;;;;;5026440;28;19917;-69
2022/11/13 03:46:13;;;;;;;;;;;9.20;99.90;;;;;;5025173;28;19917;-68
2022/11/13 03:48:38;;;;;;;;;;;9.30;99.90;;;;;;5025790;28;19921;-69
2022/11/13 03:51:04;;;;;;;;;;;9.20;99.90;;;;;;5026428;28;19917;-68
2022/11/13 03:53:29;;;;;;;;;;;9.20;99.90;;;;;;5026204;28;19913;-69
2022/11/13 03:55:55;;;;;;;;;;;9.10;99.90;;;;;;5025374;28;19919;-69
2022/11/13 03:58:20;;;;;;;;;;;9.10;99.90;;;;;;5025672;28;19985;-69
2022/11/13 04:00:46;;;;;;;;;;;9.00;99.90;;;;;;5026268;28;19917;-70
2022/11/13 04:03:12;;;;;;;;;;;8.90;99.90;;;;;;5026162;28;19952;-68
2022/11/13 04:05:37;;;;;;;;;;;8.90;99.90;;;;;;5027035;28;19920;-69
2022/11/13 04:08:03;;;;;;;;;;;8.90;99.90;;;;;;5026073;28;19921;-69
2022/11/13 04:10:29;;;;;;;;;;;9.00;99.90;;;;;;5025560;28;19917;-68
2022/11/13 04:12:54;;;;;;;;;;;9.00;99.90;;;;;;5025908;28;20312;-68
2022/11/13 04:15:20;;;;;;;;;;;9.10;99.90;;;;;;5026107;28;19995;-69
2022/11/13 04:17:45;;;;;;;;;;;9.10;99.90;;;;;;5026488;28;19913;-69
2022/11/13 04:20:11;;;;;;;;;;;9.10;99.90;;;;;;5024596;28;19913;-69
2022/11/13 04:22:37;;;;;;;;;;;9.10;99.90;;;;;;5025874;28;19917;-68
2022/11/13 04:25:02;;;;;;;;;;;9.10;99.90;;;;;;5024229;28;19975;-68
2022/11/13 04:27:28;;;;;;;;;;;9.10;99.90;;;;;;5025137;28;19917;-69
2022/11/13 04:29:53;;;;;;;;;;;9.20;99.90;;;;;;5025671;28;20278;-69
2022/11/13 04:32:19;;;;;;;;;;;9.20;99.90;;;;;;5026883;28;19917;-69
2022/11/13 04:34:44;;;;;;;;;;;9.20;99.90;;;;;;5024842;28;20000;-67
2022/11/13 04:37:10;;;;;;;;;;;9.30;99.90;;;;;;5024560;28;20277;-70
2022/11/13 04:39:35;;;;;;;;;;;9.20;99.90;;;;;;5024863;28;19959;-69
2022/11/13 04:44:44;;;;;;;;;;;9.30;99.90;;;;;;5025899;28;19936;-67
2022/11/13 04:47:10;;;;;;;;;;;9.30;99.90;;;;;;5025611;28;19958;-70
2022/11/13 04:49:35;;;;;;;;;;;9.30;99.90;;;;;;5026262;28;19921;-69
2022/11/13 04:52:01;;;;;;;;;;;9.30;99.90;;;;;;5025931;28;19917;-69
2022/11/13 04:54:26;;;;;;;;;;;9.20;99.90;;;;;;5024153;28;19913;-69
2022/11/13 04:56:52;;;;;;;;;;;9.30;99.90;;;;;;5023636;28;20047;-69
2022/11/13 04:59:17;;;;;;;;;;;9.20;99.90;;;;;;5026587;28;19920;-69
2022/11/13 05:01:43;;;;;;;;;;;9.20;99.90;;;;;;5026397;28;19956;-68
2022/11/13 05:04:12;;;;;;;;;;;9.20;99.90;;;;;;5023379;28;20000;-69
2022/11/13 05:06:37;;;;;;;;;;;9.20;99.90;;;;;;5026031;28;19940;-69
2022/11/13 05:09:03;;;;;;;;;;;9.10;99.90;;;;;;5024208;28;20019;-68
2022/11/13 05:11:28;;;;;;;;;;;9.20;99.90;;;;;;5025961;28;19913;-69
2022/11/13 05:13:54;;;;;;;;;;;9.20;99.90;;;;;;5024767;28;19924;-69
2022/11/13 05:16:20;;;;;;;;;;;9.10;99.90;;;;;;5026478;28;19986;-69
2022/11/13 05:18:45;;;;;;;;;;;9.10;99.90;;;;;;5020654;28;19913;-68
2022/11/13 05:21:11;;;;;;;;;;;9.00;99.90;;;;;;5023945;28;20823;-68
2022/11/13 05:23:36;;;;;;;;;;;9.00;99.90;;;;;;5025299;28;19956;-68
2022/11/13 05:26:03;;;;;;;;;;;9.00;99.90;;;;;;5023735;28;20373;-68
2022/11/13 05:28:28;;;;;;;;;;;9.00;99.90;;;;;;5021962;28;19926;-68
2022/11/13 05:31:01;;;;;;;;;;;9.00;99.90;;;;;;5025149;28;19925;-67
2022/11/13 05:33:27;;;;;;;;;;;8.90;99.90;;;;;;5025432;28;19913;-68
2022/11/13 05:35:53;;;;;;;;;;;8.90;99.90;;;;;;5029100;28;20369;-68
2022/11/13 05:38:18;;;;;;;;;;;8.80;99.90;;;;;;5030009;28;20004;-68
2022/11/13 05:40:44;;;;;;;;;;;8.80;99.90;;;;;;5029455;28;20274;-68
2022/11/13 05:43:09;;;;;;;;;;;8.70;99.90;;;;;;5028372;28;19921;-69
2022/11/13 05:45:34;;;;;;;;;;;8.70;99.90;;;;;;5029117;28;19941;-68
2022/11/13 05:48:00;;;;;;;;;;;8.60;99.90;;;;;;5028563;28;20322;-70
2022/11/13 05:50:25;;;;;;;;;;;8.50;99.90;;;;;;5029145;28;19920;-68
2022/11/13 05:52:51;;;;;;;;;;;8.40;99.90;;;;;;5026606;28;19917;-68
2022/11/13 05:55:16;;;;;;;;;;;8.30;99.90;;;;;;5027200;28;20362;-68
2022/11/13 05:57:42;;;;;;;;;;;8.20;99.90;;;;;;5027714;28;19913;-69
2022/11/13 06:00:07;;;;;;;;;;;8.10;99.90;;;;;;5026774;28;19925;-69
2022/11/13 06:02:33;;;;;;;;;;;8.10;99.90;;;;;;5028705;28;20374;-68
2022/11/13 06:04:59;;;;;;;;;;;8.10;99.90;;;;;;5027549;28;19921;-69
2022/11/13 06:07:24;;;;;;;;;;;8.00;99.90;;;;;;5029324;28;19913;-69
2022/11/13 06:09:50;;;;;;;;;;;7.90;99.90;;;;;;5028300;28;20401;-73
2022/11/13 06:12:15;;;;;;;;;;;7.90;99.90;;;;;;5027491;28;19913;-69
2022/11/13 06:14:41;;;;;;;;;;;7.80;99.90;;;;;;5027255;28;19975;-68
2022/11/13 06:17:06;;;;;;;;;;;7.80;99.90;;;;;;5028223;28;20304;-69
2022/11/13 06:19:32;;;;;;;;;;;7.80;99.90;;;;;;5029076;28;19963;-68
2022/11/13 06:21:57;;;;;;;;;;;7.80;99.90;;;;;;5028120;28;20011;-68
2022/11/13 06:24:22;;;;;;;;;;;7.90;99.90;;;;;;5027899;28;19917;-68
2022/11/13 06:26:48;;;;;;;;;;;7.80;99.90;;;;;;5028714;28;19944;-69
2022/11/13 06:29:13;;;;;;;;;;;7.90;99.90;;;;;;5028428;28;19917;-68
2022/11/13 06:31:39;;;;;;;;;;;7.90;99.90;;;;;;5028831;28;19917;-68
2022/11/13 06:34:05;;;;;;;;;;;7.90;99.90;;;;;;5027633;28;19946;-68
2022/11/13 06:36:31;;;;;;;;;;;7.90;99.90;;;;;;5027407;28;19917;-68
2022/11/13 06:38:57;;;;;;;;;;;8.00;99.90;;;;;;5027675;28;20289;-69
2022/11/13 06:41:24;;;;;;;;;;;8.10;99.90;;;;;;5028879;28;19917;-69
2022/11/13 06:43:50;;;;;;;;;;;8.10;99.90;;;;;;5027618;28;19968;-68
2022/11/13 06:46:15;;;;;;;;;;;8.10;99.90;;;;;;5028635;28;19960;-67
2022/11/13 06:48:41;;;;;;;;;;;8.10;99.90;;;;;;5028996;28;19963;-69
2022/11/13 06:51:10;;;;;;;;;;;8.20;99.90;;;;;;5027932;28;20285;-69
2022/11/13 06:53:35;;;;;;;;;;;8.20;99.90;;;;;;5025532;28;19920;-68
2022/11/13 06:56:03;;;;;;;;;;;8.30;99.90;;;;;;5026420;28;19928;-68
2022/11/13 06:58:29;;;;;;;;;;;8.40;99.90;;;;;;5028228;28;19921;-68
2022/11/13 07:00:54;;;;;;;;;;;8.40;99.90;;;;;;5027465;28;19927;-68
2022/11/13 07:03:22;;;;;;;;;;;8.50;99.90;;;;;;5026219;28;20388;-70
2022/11/13 07:05:47;;;;;;;;;;;8.60;99.90;;;;;;5027609;28;20011;-69
2022/11/13 07:08:13;;;;;;;;;;;8.70;99.90;;;;;;5025776;28;20667;-68
2022/11/13 07:10:39;;;;;;;;;;;8.70;99.90;;;;;;5024064;28;19928;-71
2022/11/13 07:13:04;;;;;;;;;;;8.80;99.90;;;;;;5027059;28;20293;-70
2022/11/13 07:15:37;;;;;;;;;;;8.90;99.90;;;;;;5027510;28;19920;-68
2022/11/13 07:18:03;;;;;;;;;;;8.90;99.90;;;;;;5027230;28;20041;-69
2022/11/13 07:20:28;;;;;;;;;;;8.90;99.90;;;;;;5027522;28;19921;-69
2022/11/13 07:22:55;;;;;;;;;;;9.00;99.90;;;;;;5026601;28;19924;-69
2022/11/13 07:25:20;;;;;;;;;;;9.00;99.90;;;;;;5025987;28;19968;-69
2022/11/13 07:27:46;;;;;;;;;;;9.10;99.90;;;;;;5027573;28;20351;-69
2022/11/13 07:30:11;;;;;;;;;;;9.10;99.90;;;;;;5026472;28;19924;-69
2022/11/13 07:32:37;;;;;;;;;;;9.10;99.90;;;;;;5025584;28;20262;-69
2022/11/13 07:35:02;;;;;;;;;;;9.10;99.90;;;;;;5026814;28;19925;-68
2022/11/13 07:37:28;;;;;;;;;;;9.20;99.90;;;;;;5026984;28;20023;-70
2022/11/13 07:39:53;;;;;;;;;;;9.20;99.90;;;;;;5025366;28;19917;-69
2022/11/13 07:42:19;;;;;;;;;;;9.20;99.90;;;;;;5025212;28;19924;-69
2022/11/13 07:44:44;;;;;;;;;;;9.30;99.90;;;;;;5026933;28;20607;-70
2022/11/13 07:47:10;;;;;;;;;;;9.30;99.90;;;;;;5025953;28;20018;-68
2022/11/13 07:49:35;;;;;;;;;;;9.30;99.90;;;;;;5026915;28;19932;-71
2022/11/13 07:52:01;;;;;;;;;;;9.20;99.90;;;;;;5025722;28;20281;-69
2022/11/13 07:54:26;;;;;;;;;;;9.20;99.90;;;;;;5026461;28;20373;-70
2022/11/13 07:56:52;;;;;;;;;;;9.20;99.90;;;;;;5022964;28;19924;-69
2022/11/13 07:59:17;;;;;;;;;;;9.20;99.90;;;;;;5020743;28;20374;-69
2022/11/13 08:01:42;;;;;;;;;;;9.20;99.90;;;;;;5022015;28;19913;-69
2022/11/13 08:04:08;;;;;;;;;;;9.20;99.90;;;;;;5025621;28;19935;-69
2022/11/13 08:06:35;;;;;;;;;;;9.20;99.90;;;;;;5026578;28;19916;-70
2022/11/13 08:09:01;;;;;;;;;;;9.30;99.90;;;;;;5026043;28;20003;-69
2022/11/13 08:11:26;;;;;;;;;;;9.30;99.90;;;;;;5026462;28;20449;-69
2022/11/13 08:13:52;;;;;;;;;;;9.30;99.90;;;;;;5023983;28;19913;-69
2022/11/13 08:16:17;;;;;;;;;;;9.40;99.90;;;;;;5026162;28;19913;-68
2022/11/13 08:18:43;;;;;;;;;;;9.40;99.90;;;;;;5026847;28;20392;-69
2022/11/13 08:21:08;;;;;;;;;;;9.40;99.90;;;;;;5025468;28;19921;-70
2022/11/13 08:23:34;;;;;;;;;;;9.40;99.90;;;;;;5025621;28;19916;-69
2022/11/13 08:26:03;;;;;;;;;;;9.40;99.90;;;;;;5025087;28;19967;-69
2022/11/13 08:28:28;;;;;;;;;;;9.50;99.90;;;;;;5025992;28;20399;-68
2022/11/13 08:30:54;;;;;;;;;;;9.60;99.90;;;;;;5025338;28;19913;-69
2022/11/13 08:33:19;;;;;;;;;;;9.60;99.90;;;;;;5024294;28;20333;-70
2022/11/13 08:35:55;;;;;;;;;;;9.60;99.90;;;;;;5024071;28;19921;-71
2022/11/13 08:38:22;;;;;;;;;;;9.70;99.90;;;;;;5024597;28;20564;-71
2022/11/13 08:40:47;;;;;;;;;;;9.80;99.90;;;;;;5026118;28;20289;-70
2022/11/13 08:43:13;;;;;;;;;;;9.80;99.90;;;;;;5024787;28;19913;-70
2022/11/13 08:45:38;;;;;;;;;;;9.90;99.90;;;;;;5026518;28;19916;-71
2022/11/13 08:48:04;;;;;;;;;;;9.90;99.90;;;;;;5025168;28;19986;-71
2022/11/13 08:50:31;;;;;;;;;;;10.00;99.90;;;;;;5026774;28;19917;-70
2022/11/13 08:52:57;;;;;;;;;;;10.00;99.90;;;;;;5024398;28;19921;-69
2022/11/13 08:55:23;;;;;;;;;;;10.10;99.90;;;;;;5025863;28;19939;-70
2022/11/13 08:57:49;;;;;;;;;;;10.20;99.90;;;;;;5025846;28;20374;-69
2022/11/13 09:00:14;;;;;;;;;;;10.20;99.90;;;;;;5023993;28;19954;-69
2022/11/13 09:02:40;;;;;;;;;;;10.30;99.90;;;;;;5024446;28;19916;-69
2022/11/13 09:05:06;;;;;;;;;;;10.40;99.90;;;;;;5014126;28;19913;-68
2022/11/13 09:07:31;;;;;;;;;;;10.50;99.90;;;;;;5023323;28;19913;-69
2022/11/13 09:09:57;;;;;;;;;;;10.60;99.90;;;;;;5029403;28;19928;-68
2022/11/13 09:12:22;;;;;;;;;;;10.60;99.90;;;;;;5027861;28;19924;-68
2022/11/13 09:14:48;;;;;;;;;;;10.70;99.90;;;;;;5028975;28;19967;-69
2022/11/13 09:17:13;;;;;;;;;;;10.80;99.90;;;;;;5029051;28;19920;-68
2022/11/13 09:19:40;;;;;;;;;;;10.80;99.90;;;;;;5028876;28;19917;-68
2022/11/13 09:22:06;;;;;;;;;;;10.90;99.90;;;;;;5026779;28;19932;-69
2022/11/13 09:24:31;;;;;;;;;;;11.10;99.90;;;;;;5026526;28;19913;-68
2022/11/13 09:26:57;;;;;;;;;;;11.10;99.90;;;;;;5028803;28;19916;-68
2022/11/13 09:29:22;;;;;;;;;;;11.20;99.90;;;;;;5028422;28;20300;-68
2022/11/13 09:31:49;;;;;;;;;;;11.30;99.90;;;;;;5028342;28;19916;-69
2022/11/13 09:34:14;;;;;;;;;;;11.40;99.90;;;;;;5025420;28;19913;-68
2022/11/13 09:36:40;;;;;;;;;;;11.40;99.90;;;;;;5027509;28;19924;-68
2022/11/13 09:39:05;;;;;;;;;;;11.50;99.90;;;;;;5028397;28;20341;-69
2022/11/13 09:41:43;;;;;;;;;;;11.60;99.90;;;;;;5030053;28;20373;-68
2022/11/13 09:44:14;;;;;;;;;;;11.70;99.90;;;;;;5025797;28;19963;-68
2022/11/13 09:46:50;;;;;;;;;;;11.80;99.90;;;;;;5028298;28;19924;-67
2022/11/13 09:49:35;;;;;;;;;;;11.90;99.90;;;;;;5027992;28;19956;-68
2022/11/13 09:52:03;;;;;;;;;;;12.00;99.90;;;;;;5019489;28;20404;-69
2022/11/13 09:54:29;;;;;;;;;;;12.00;99.90;;;;;;5028467;28;19971;-68
2022/11/13 09:57:13;;;;;;;;;;;12.00;99.90;;;;;;5026629;28;19921;-69
2022/11/13 10:00:02;;;;;;;;;;;12.00;99.90;;;;;;5025943;28;19921;-68
2022/11/13 10:02:39;;;;;;;;;;;12.10;99.90;;;;;;5022668;28;20000;-68
2022/11/13 10:05:05;;;;;;;;;;;12.20;99.90;;;;;;5022064;28;19913;-68
2022/11/13 10:07:43;;;;;;;;;;;12.20;99.90;;;;;;5025787;28;19975;-69
2022/11/13 10:10:17;;;;;;;;;;;12.30;99.90;;;;;;5024303;28;20367;-68
2022/11/13 10:12:44;;;;;;;;;;;12.30;99.90;;;;;;5026417;28;19913;-69
2022/11/13 10:15:10;;;;;;;;;;;12.30;99.90;;;;;;5025447;28;19913;-69
2022/11/13 10:17:35;;;;;;;;;;;12.40;99.90;;;;;;5028242;28;19916;-69
2022/11/13 10:20:03;;;;;;;;;;;12.40;99.90;;;;;;5026244;28;20063;-69
2022/11/13 10:22:32;;;;;;;;;;;12.40;99.90;;;;;;5023934;28;19972;-69
2022/11/13 10:25:03;;;;;;;;;;;12.30;99.90;;;;;;5022478;28;19913;-69
2022/11/13 10:27:29;;;;;;;;;;;12.40;99.90;;;;;;5027414;28;19959;-69
2022/11/13 10:29:55;;;;;;;;;;;12.50;99.90;;;;;;5026734;28;19987;-71
2022/11/13 10:32:23;;;;;;;;;;;12.40;99.90;;;;;;5027354;28;19913;-69
2022/11/13 10:34:56;;;;;;;;;;;12.40;99.90;;;;;;5026184;28;20109;-69
2022/11/13 10:37:27;;;;;;;;;;;12.40;99.90;;;;;;5024904;28;20340;-70
2022/11/13 10:39:52;;;;;;;;;;;12.50;99.90;;;;;;5021007;28;19921;-70
2022/11/13 10:42:22;;;;;;;;;;;12.50;99.90;;;;;;5019586;28;19928;-69
2022/11/13 10:44:56;;;;;;;;;;;12.60;99.90;;;;;;5020348;28;19917;-69
2022/11/13 10:47:22;;;;;;;;;;;12.70;99.90;;;;;;5016530;28;20097;-68
2022/11/13 10:49:48;;;;;;;;;;;12.90;99.90;;;;;;5019111;28;20683;-69
2022/11/13 10:52:32;;;;;;;;;;;13.00;99.90;;;;;;5024583;28;19924;-69
2022/11/13 10:55:24;;;;;;;;;;;13.10;99.90;;;;;;5024642;28;19964;-70
2022/11/13 10:57:57;;;;;;;;;;;13.10;99.90;;;;;;5018157;28;19917;-69
2022/11/13 11:00:22;;;;;;;;;;;13.10;99.90;;;;;;5024579;28;20002;-70
2022/11/13 11:02:49;;;;;;;;;;;13.20;99.90;;;;;;5025857;28;20324;-69
2022/11/13 11:05:22;;;;;;;;;;;13.20;99.90;;;;;;5025047;28;19918;-71
2022/11/13 11:07:48;;;;;;;;;;;13.30;99.70;;;;;;5027624;28;19917;-69
2022/11/13 11:10:22;;;;;;;;;;;13.40;99.90;;;;;;5024530;28;19928;-71
2022/11/13 11:12:54;;;;;;;;;;;13.40;99.90;;;;;;5026908;28;19925;-70
2022/11/13 11:15:22;;;;;;;;;;;13.40;99.90;;;;;;5026377;28;19936;-67
2022/11/13 11:17:50;;;;;;;;;;;13.50;99.90;;;;;;5027351;28;19917;-69
2022/11/13 11:20:16;;;;;;;;;;;13.50;99.90;;;;;;5026365;28;20247;-69
2022/11/13 11:22:42;;;;;;;;;;;13.50;99.90;;;;;;5026780;28;19960;-71
2022/11/13 11:25:13;;;;;;;;;;;13.50;99.90;;;;;;5025621;28;19913;-70
2022/11/13 11:27:58;;;;;;;;;;;13.40;99.90;;;;;;5027115;28;20148;-69
2022/11/13 11:30:27;;;;;;;;;;;13.40;99.90;;;;;;5020880;28;20018;-70
2022/11/13 11:33:08;;;;;;;;;;;13.30;99.90;;;;;;5025770;28;20577;-71
2022/11/13 11:35:39;;;;;;;;;;;13.30;99.90;;;;;;5023350;28;19928;-68
2022/11/13 11:38:10;;;;;;;;;;;13.40;99.90;;;;;;5024219;28;19921;-71
2022/11/13 11:40:40;;;;;;;;;;;13.30;99.90;;;;;;5027173;28;19928;-69
2022/11/13 11:43:06;;;;;;;;;;;13.40;99.90;;;;;;5025578;28;19924;-69
2022/11/13 11:45:35;;;;;;;;;;;13.50;99.90;;;;;;5025904;28;19921;-69
2022/11/13 11:48:03;;;;;;;;;;;13.40;99.90;;;;;;5025552;28;20004;-69
2022/11/13 11:50:37;;;;;;;;;;;13.40;99.40;;;;;;5025196;28;19921;-69
2022/11/13 11:53:07;;;;;;;;;;;13.40;99.30;;;;;;5022257;28;19943;-68
2022/11/13 11:55:36;;;;;;;;;;;13.40;99.70;;;;;;5025783;28;19975;-68
2022/11/13 11:58:23;;;;;;;;;;;13.30;99.90;;;;;;5025802;28;19967;-68
2022/11/13 12:00:50;;;;;;;;;;;13.30;99.90;;;;;;5026234;28;20270;-70
2022/11/13 12:03:39;;;;;;;;;;;13.40;99.90;;;;;;5024878;28;19917;-69
2022/11/13 12:06:23;;;;;;;;;;;13.30;99.90;;;;;;5020789;28;19924;-70
2022/11/13 12:08:59;;;;;;;;;;;13.30;99.90;;;;;;5026653;28;19921;-69
2022/11/13 12:11:27;;;;;;;;;;;13.30;99.90;;;;;;5022131;28;20270;-70
2022/11/13 12:14:03;;;;;;;;;;;13.30;99.90;;;;;;5021125;28;19913;-71
2022/11/13 12:16:39;;;;;;;;;;;13.30;99.90;;;;;;5023123;28;20384;-69
2022/11/13 12:19:24;;;;;;;;;;;13.30;99.90;;;;;;5025137;28;20397;-68
2022/11/13 12:21:50;;;;;;;;;;;13.40;99.90;;;;;;5026041;28;19975;-68
2022/11/13 12:24:34;;;;;;;;;;;13.40;99.90;;;;;;5023219;28;19925;-69
2022/11/13 12:27:08;;;;;;;;;;;13.40;99.90;;;;;;5020994;28;19945;-69
2022/11/13 12:29:46;;;;;;;;;;;13.50;99.90;;;;;;5024396;28;20393;-68
2022/11/13 12:32:14;;;;;;;;;;;13.50;99.90;;;;;;5025365;28;20312;-70
2022/11/13 12:34:42;;;;;;;;;;;13.50;99.90;;;;;;5024259;28;19913;-70
2022/11/13 12:37:13;;;;;;;;;;;13.50;99.90;;;;;;5025112;28;20388;-69
2022/11/13 12:39:50;;;;;;;;;;;13.50;99.90;;;;;;5024284;28;20312;-67
2022/11/13 12:42:22;;;;;;;;;;;13.60;99.90;;;;;;5024374;28;20015;-69
2022/11/13 12:44:50;;;;;;;;;;;13.50;99.90;;;;;;5025639;28;20518;-68
2022/11/13 12:47:16;;;;;;;;;;;13.60;99.90;;;;;;5023975;28;19974;-70
2022/11/13 12:49:41;;;;;;;;;;;13.60;99.90;;;;;;5023888;28;20328;-68
2022/11/13 12:52:19;;;;;;;;;;;13.60;99.90;;;;;;5024184;28;19917;-68
2022/11/13 12:54:44;;;;;;;;;;;13.60;99.90;;;;;;5025213;28;19928;-70
2022/11/13 12:57:14;;;;;;;;;;;13.60;99.90;;;;;;5022846;28;19916;-69
2022/11/13 12:59:42;;;;;;;;;;;13.70;99.90;;;;;;5023661;28;19998;-70
2022/11/13 13:02:08;;;;;;;;;;;13.80;99.90;;;;;;5024506;28;20282;-70
2022/11/13 13:04:33;;;;;;;;;;;13.80;99.90;;;;;;5023313;28;19913;-69
2022/11/13 13:06:59;;;;;;;;;;;13.90;99.90;;;;;;5023038;28;19952;-69
2022/11/13 13:09:35;;;;;;;;;;;13.90;99.90;;;;;;5024453;28;19937;-68
2022/11/13 13:12:15;;;;;;;;;;;13.90;99.90;;;;;;5024701;28;19936;-68
2022/11/13 13:14:53;;;;;;;;;;;13.90;99.90;;;;;;5023370;28;19923;-67
2022/11/13 13:17:21;;;;;;;;;;;13.90;99.90;;;;;;5018354;28;20008;-68
2022/11/13 13:20:10;;;;;;;;;;;14.20;99.90;;;;;;5023058;28;20560;-67
2022/11/13 13:22:35;;;;;;;;;;;14.30;99.90;;;;;;5016588;28;19932;-66
2022/11/13 13:25:06;;;;;;;;;;;14.40;99.90;;;;;;5023103;28;20528;-70
2022/11/13 13:27:36;;;;;;;;;;;14.30;99.90;;;;;;5015619;28;20004;-67
2022/11/13 13:30:16;;;;;;;;;;;14.30;99.90;;;;;;5019102;28;20000;-68
2022/11/13 13:33:02;;;;;;;;;;;14.40;99.90;;;;;;5014223;28;20389;-68
2022/11/13 13:35:31;;;;;;;;;;;14.50;99.80;;;;;;5018695;28;20393;-69
2022/11/13 13:38:08;;;;;;;;;;;14.50;99.70;;;;;;5018977;28;20012;-69
2022/11/13 13:40:50;;;;;;;;;;;14.50;99.90;;;;;;5017103;28;20425;-70
2022/11/13 13:43:22;;;;;;;;;;;14.50;99.90;;;;;;5017522;28;19939;-68
2022/11/13 13:46:06;;;;;;;;;;;14.50;99.90;;;;;;5016568;28;19967;-69
2022/11/13 13:48:36;;;;;;;;;;;14.50;99.90;;;;;;5020437;28;19921;-68
2022/11/13 13:51:02;;;;;;;;;;;14.50;99.90;;;;;;5013388;28;20400;-69
2022/11/13 13:53:31;;;;;;;;;;;14.60;99.90;;;;;;5018695;28;20424;-69
2022/11/13 13:55:57;;;;;;;;;;;14.60;99.90;;;;;;5021244;28;19917;-69
2022/11/13 13:58:26;;;;;;;;;;;14.70;99.90;;;;;;5022408;28;19936;-69
2022/11/13 14:00:59;;;;;;;;;;;14.60;99.90;;;;;;5021360;28;20000;-67
2022/11/13 14:03:25;;;;;;;;;;;14.70;99.90;;;;;;5019436;28;19917;-68
2022/11/13 14:05:50;;;;;;;;;;;14.70;99.90;;;;;;5025142;28;19959;-67
2022/11/13 14:08:23;;;;;;;;;;;14.70;99.90;;;;;;5025308;28;20331;-67
2022/11/13 14:10:49;;;;;;;;;;;14.80;99.90;;;;;;5023740;28;19924;-68
2022/11/13 14:13:22;;;;;;;;;;;14.80;99.90;;;;;;5021470;28;19920;-68
2022/11/13 14:15:48;;;;;;;;;;;14.80;99.90;;;;;;5021931;28;19932;-68
2022/11/13 14:18:15;;;;;;;;;;;14.70;99.90;;;;;;5019555;28;20345;-69
2022/11/13 14:20:43;;;;;;;;;;;14.70;99.90;;;;;;5022514;28;19913;-69
2022/11/13 14:23:10;;;;;;;;;;;14.70;99.90;;;;;;5023261;28;19971;-68
2022/11/13 14:25:36;;;;;;;;;;;14.70;99.90;;;;;;5025730;28;19932;-68
2022/11/13 14:28:02;;;;;;;;;;;14.60;99.90;;;;;;5024655;28;19921;-70